< < Back
Terminal Aerodrome Forecast


Current Version              Previous Versions:   1  2  3  4  5  6  7  8  9  

Terminal Aerodrome Forecast

684
FTUS42 KCAE 172000 AAB
TAFCAE
TAF AMD
KCAE 172055Z 1721/1818 VRB03KT P6SM VCSH BKN015 OVC035
      TEMPO 1722/1724 3SM -SHRA SCT015 BKN040
     FM180000 VRB03KT P6SM BKN015 OVC035
      TEMPO 1800/1804 3SM -SHRA
     FM180500 VRB03KT 4SM BR OVC009
     FM180800 VRB03KT 2SM BR OVC005
     FM181500 VRB03KT P6SM BKN012=

Latest METAR

452
SAUS80 KWBC 180300
MTRCAE
METAR KCAE 180256Z 00000KT 4SM BR SCT011 BKN070 OVC100 19/18 A3003 RMK
AO2 RAE17 SLP167 P0000 60001 T01940178 53008


USA.gov is the U.S. government's official web portal to all federal, state and local government web resources and services.